createdAt,value
2023-01-31T00:13:37.733Z,945.8
2023-01-31T00:18:50.756Z,946
2023-01-31T00:24:07.436Z,946
2023-01-31T00:29:19.507Z,945.8
2023-01-31T00:39:52.526Z,946
2023-01-31T00:45:13.440Z,946
2023-01-31T00:50:24.041Z,945.7
2023-01-31T01:00:57.187Z,945.4
2023-01-31T01:06:21.292Z,945.4
2023-01-31T01:11:30.006Z,944.9
2023-01-31T01:16:40.675Z,944.4
2023-01-31T01:21:52.716Z,944.4
2023-01-31T01:27:04.636Z,944.1
2023-01-31T01:37:37.659Z,943.9
2023-01-31T01:42:48.719Z,943.6
2023-01-31T01:47:57.941Z,943.1
2023-01-31T01:58:36.369Z,943.1
2023-01-31T02:03:45.232Z,943.3
2023-01-31T02:14:15.785Z,943.4
2023-01-31T02:19:31.645Z,943.4
2023-01-31T02:35:26.440Z,943.4
2023-01-31T02:46:00.800Z,943.2
2023-01-31T02:51:10.982Z,942.7
2023-01-31T02:56:24.042Z,942.2
2023-01-31T03:01:39.553Z,942.2
2023-01-31T03:06:49.181Z,942
2023-01-31T03:12:02.462Z,942
2023-01-31T03:22:35.396Z,942.1
2023-01-31T03:27:46.353Z,942.3
2023-01-31T03:38:19.133Z,942.6
2023-01-31T03:43:33.268Z,942.6
2023-01-31T03:54:04.783Z,942.4
2023-01-31T03:59:16.947Z,942.6
2023-01-31T04:04:27.262Z,942.9
2023-01-31T04:20:22.948Z,943.2
2023-01-31T04:25:37.244Z,943.5
2023-01-31T04:30:49.080Z,943.5
2023-01-31T04:36:00.856Z,943.6
2023-01-31T04:57:17.865Z,943.6
2023-01-31T05:02:34.620Z,943.2
2023-01-31T05:07:50.064Z,943.2
2023-01-31T05:18:25.192Z,943.4
2023-01-31T05:23:37.147Z,943.3
2023-01-31T05:39:43.481Z,943.3
2023-01-31T05:50:12.714Z,943.6
2023-01-31T05:55:32.727Z,943.6
2023-01-31T06:06:08.097Z,943.8
2023-01-31T06:11:20.175Z,944.1
2023-01-31T06:16:32.110Z,944.2
2023-01-31T06:21:42.620Z,944.1
2023-01-31T06:26:57.326Z,944.1
2023-01-31T06:32:07.243Z,943.9
2023-01-31T06:37:19.010Z,943.6
2023-01-31T06:42:31.935Z,943.5
2023-01-31T06:47:41.099Z,943.6
2023-01-31T06:52:55.564Z,943.8
2023-01-31T07:03:27.454Z,944
2023-01-31T07:08:43.659Z,944
2023-01-31T07:13:59.633Z,944
2023-01-31T07:19:16.393Z,944
2023-01-31T07:24:29.199Z,943.8
2023-01-31T07:29:41.355Z,943.6
2023-01-31T07:45:38.259Z,943.4
2023-01-31T07:50:49.279Z,943.2
2023-01-31T07:55:58.152Z,943.1
2023-01-31T08:01:18.041Z,943.1
2023-01-31T08:06:23.720Z,942.8
2023-01-31T08:11:35.243Z,942.6
2023-01-31T08:16:52.768Z,942.6
2023-01-31T08:22:02.672Z,942.4
2023-01-31T08:27:14.247Z,942.2
2023-01-31T08:32:26.395Z,942
2023-01-31T08:37:43.411Z,942
2023-01-31T08:42:57.198Z,941.8
2023-01-31T08:53:30.293Z,941.6
2023-01-31T08:58:44.278Z,941.6
2023-01-31T09:09:16.455Z,941.2
2023-01-31T09:14:27.563Z,941.3
2023-01-31T09:30:25.299Z,941.3
2023-01-31T09:35:36.983Z,941.3
2023-01-31T09:56:58.412Z,941.3
2023-01-31T10:18:12.246Z,940.7
2023-01-31T10:23:24.166Z,940.8
2023-01-31T10:28:35.268Z,940.7
2023-01-31T10:44:31.660Z,940.4
2023-01-31T10:49:45.076Z,940.4
2023-01-31T10:54:55.931Z,940.3
2023-01-31T11:00:06.731Z,940.3
2023-01-31T11:16:14.806Z,940.3
2023-01-31T11:21:27.504Z,940.3
2023-01-31T11:31:59.744Z,940.1
2023-01-31T11:37:10.711Z,940.2
2023-01-31T11:47:43.416Z,940.1
2023-01-31T11:58:17.448Z,940.1
2023-01-31T12:03:28.743Z,939.7
2023-01-31T12:08:39.431Z,939.6
2023-01-31T12:24:33.883Z,939.3
2023-01-31T12:29:46.040Z,939.1
2023-01-31T12:35:10.567Z,939.1
2023-01-31T12:40:31.368Z,939.1
2023-01-31T12:45:28.617Z,939.3
2023-01-31T12:50:44.688Z,939.3
2023-01-31T12:55:57.020Z,939.1
2023-01-31T13:01:10.000Z,939.2
2023-01-31T13:06:21.225Z,939
2023-01-31T13:16:51.341Z,939
2023-01-31T13:27:25.459Z,939.3
2023-01-31T13:37:55.203Z,939.4
2023-01-31T13:48:28.036Z,939.2
2023-01-31T13:53:39.808Z,939
2023-01-31T13:58:52.074Z,939
2023-01-31T14:04:03.097Z,939
2023-01-31T14:09:14.241Z,939.2
2023-01-31T14:14:24.669Z,939
2023-01-31T14:35:41.454Z,939
2023-01-31T14:40:52.601Z,939.1
2023-01-31T14:46:05.140Z,939
2023-01-31T14:51:20.379Z,939
2023-01-31T14:56:35.071Z,939
2023-01-31T15:07:08.198Z,939
2023-01-31T15:12:22.288Z,938.9
2023-01-31T15:33:39.954Z,938.7
2023-01-31T15:38:55.017Z,938.9
2023-01-31T15:44:16.893Z,938.9
2023-01-31T15:54:49.573Z,939.1
2023-01-31T16:00:06.288Z,939.1
2023-01-31T16:10:39.750Z,939.1
2023-01-31T16:15:50.418Z,939.5
2023-01-31T16:21:11.345Z,939.5
2023-01-31T16:26:28.402Z,939.5
2023-01-31T16:31:51.144Z,939.5
2023-01-31T16:37:02.069Z,939.5
2023-01-31T16:42:13.552Z,939.2
2023-01-31T16:58:27.347Z,939.2
2023-01-31T17:03:36.713Z,939.7
2023-01-31T17:24:49.426Z,939.7
2023-01-31T17:30:05.677Z,939.7
2023-01-31T17:35:20.145Z,939.6
2023-01-31T17:40:46.900Z,939.6
2023-01-31T17:46:03.010Z,939.6
2023-01-31T17:51:29.563Z,939.6
2023-01-31T18:02:01.257Z,939.7
2023-01-31T18:07:09.960Z,939.6
2023-01-31T18:12:25.513Z,939.6
2023-01-31T18:17:39.721Z,939.6
2023-01-31T18:28:13.910Z,939.6
2023-01-31T18:33:27.711Z,939.6
2023-01-31T18:38:51.927Z,939.6
2023-01-31T18:44:01.891Z,939.7
2023-01-31T18:49:19.120Z,939.7
2023-01-31T18:55:02.847Z,939.7
2023-01-31T19:00:11.839Z,939.8
2023-01-31T19:21:27.649Z,939.8
2023-01-31T19:26:53.778Z,939.8
2023-01-31T19:32:02.279Z,940
2023-01-31T19:48:05.132Z,940
2023-01-31T19:53:20.614Z,939.8
2023-01-31T20:14:39.696Z,940
2023-01-31T20:19:57.073Z,940
2023-01-31T20:25:07.323Z,940.3
2023-01-31T20:41:09.079Z,940.3
2023-01-31T20:57:03.323Z,940.4
2023-01-31T21:02:17.963Z,940.6
2023-01-31T21:07:38.177Z,940.4
2023-01-31T21:18:11.461Z,940.1
2023-01-31T21:23:29.023Z,940.1
2023-01-31T21:44:47.299Z,940
2023-01-31T21:49:56.967Z,940.2
2023-01-31T21:55:12.165Z,940.2
2023-01-31T22:00:21.323Z,940.2
2023-01-31T22:05:29.099Z,940
2023-01-31T22:10:39.031Z,940.2
2023-01-31T22:21:11.899Z,939.9
2023-01-31T22:26:31.136Z,939.9
2023-01-31T22:42:22.993Z,939.5
2023-01-31T22:47:37.945Z,939.4
2023-01-31T22:52:45.600Z,939.2
2023-01-31T23:08:43.463Z,939.2
2023-01-31T23:19:15.518Z,939
2023-01-31T23:24:27.425Z,939.2
2023-01-31T23:29:39.786Z,938.9
2023-01-31T23:34:51.480Z,938.7
2023-01-31T23:45:21.439Z,938.5
